KITH

Ithaca Tompkins Regional Airport

Airport
ICAO code
KITH
IATA Code
ITH
Summary
ICAO Region
NAM
ICAO Territory
Location

Lansing, New York

Serving
Ithaca
Elevation
1099 ft
Coordinates
42° 29' 27" N , 76° 27' 47" W
KCC
Airport WX
Cumulonimbus
Metar
KITH 172256Z 15006KT 10SM BKN120 20/12 A2991 RMK AO2 SLP126 T02000117

Ithaca Tompkins Regional Airport is a public use airport located 3 nm northeast of the central business district of Ithaca, a city in Tompkins County, New York, USA.

Airport map

Aerial View

SKYbrary Partners:

Safety knowledge contributed by: